Richmond, UT (84333)

6:26 AM MST on December 09, 2016 (GMT -0700)
Richmond 1436A | | Change Station

Elev 4551 ft 41.94 °N, 111.81 °W | Updated 2 minutes ago

Snow
Snow
31.0 °F
Feels Like 31 °F
N
0.0
Wind Variable Wind from SE
Gusts 0.0 mph

Today
High -- | Low -- °F
--% Chance of Precip.
Yesterday
High -- | Low -- °F
Precip. -- in
Pressure 30.27 in
Visibility 9.0 miles
Clouds Overcast 3600 ft
Windchill 31 °F
Dew Point 28 °F
Humidity 87%
Rainfall 0.00 in
Snow Depth Not available.
7:43 AM 4:55 PM
Waxing Gibbous, 74% visible
METAR KLGU 091251Z AUTO 07003KT 9SM UP OVC036 M01/M03 A3018 RMK AO2 UPB48SNB46E48 SLP249 P0000 T10111033
Pressure 30.27 in
Visibility 9.0 miles
Clouds Overcast 3600 ft
Windchill 31 °F
Dew Point 28 °F
Humidity 87%
Rainfall 0.00 in
Snow Depth Not available.
7:43 AM 4:55 PM
Waxing Gibbous, 74% visible
METAR KLGU 091251Z AUTO 07003KT 9SM UP OVC036 M01/M03 A3018 RMK AO2 UPB48SNB46E48 SLP249 P0000 T10111033

10-Day Weather Forecast

Almanac

Astronomy

Dec. 09, 2016 Rise Set
Actual Time
Civil Twilight
Nautical Twilight
Astronomical Twilight
Moon
Length of Visible Light
Length of Day
Tomorrow will be .
, % of the Moon is Illuminated

Today's Extremes

State Highs State Lows

Community

WunderPhotos

Upload Photos

1,956,407 photos uploaded!

WunderBlog® & News

Nearby

Air Quality

  Air Quality AQ Index Pollutant
Not available.

Snow Depth

Station Depth Elevation

Earthquake Activity

City Distance Mag. Time & Date
Minimum magnitude displayed is 2.5.

Coastal Water Temperatures

Place Temperature

Stations

Nearby Weather Stations

Station Location Temp. Windchill Dew Point Humidity Wind Precip. Elev Updated Type
                   

Watches & Warnings

There are currently no watches in effect.